Time;durP1;ratioP1;P1;durP2;ratioP2;P2;SDS_P1;SDS_P2;PMS_P1;PMS_P2;Temp;Humidity;BMP_temperature;BMP_pressure;BME280_temperature;BME280_humidity;BME280_pressure;Samples;Min_cycle;Max_cycle;Signal;HPM_P1;HPM_P2
2022/05/27 00:01:22;;;;;;;3.13;1.50;;;15.70;70.10;;;;;;5033165;28;20145;-81
2022/05/27 00:03:48;;;;;;;3.40;1.55;;;15.70;70.10;;;;;;5051494;28;20068;-82
2022/05/27 00:06:14;;;;;;;3.50;1.20;;;15.70;70.20;;;;;;5052443;28;20067;-82
2022/05/27 00:08:40;;;;;;;4.28;1.60;;;15.70;70.20;;;;;;5034007;28;20045;-81
2022/05/27 00:11:07;;;;;;;4.00;1.65;;;15.70;70.10;;;;;;5052065;28;20045;-81
2022/05/27 00:13:33;;;;;;;3.13;1.50;;;15.70;70.20;;;;;;5051675;28;20049;-83
2022/05/27 00:15:59;;;;;;;5.40;1.52;;;15.80;70.20;;;;;;5054086;28;20049;-82
2022/05/27 00:18:25;;;;;;;3.88;1.58;;;15.70;70.10;;;;;;5056214;28;20044;-82
2022/05/27 00:20:50;;;;;;;3.92;1.50;;;15.80;70.20;;;;;;5038875;28;20072;-82
2022/05/27 00:23:17;;;;;;;4.30;1.42;;;15.80;70.30;;;;;;5038462;28;20068;-82
2022/05/27 00:25:43;;;;;;;2.70;1.50;;;15.80;70.30;;;;;;5055158;28;20061;-81
2022/05/27 00:28:09;;;;;;;6.32;1.65;;;15.70;70.20;;;;;;5055144;28;20052;-82
2022/05/27 00:30:35;;;;;;;4.28;1.95;;;15.70;70.10;;;;;;5056648;28;20084;-82
2022/05/27 00:33:02;;;;;;;3.50;1.60;;;15.70;70.10;;;;;;5037898;28;20064;-82
2022/05/27 00:35:27;;;;;;;4.88;1.80;;;15.70;70.20;;;;;;5037519;28;20094;-81
2022/05/27 00:37:53;;;;;;;2.92;1.60;;;15.70;70.20;;;;;;5036895;28;20416;-82
2022/05/27 00:40:20;;;;;;;6.63;2.30;;;15.80;70.40;;;;;;5037974;28;20067;-82
2022/05/27 00:42:47;;;;;;;5.72;1.70;;;15.80;70.40;;;;;;5055355;28;20056;-82
2022/05/27 00:45:17;;;;;;;6.20;2.42;;;15.70;70.30;;;;;;5055260;28;20068;-82
2022/05/27 00:47:45;;;;;;;7.35;2.45;;;15.70;70.40;;;;;;5053780;28;20049;-81
2022/05/27 00:50:13;;;;;;;6.78;2.00;;;15.70;70.40;;;;;;5037701;28;20416;-82
2022/05/27 00:52:42;;;;;;;7.70;2.58;;;15.60;70.30;;;;;;5020728;28;20120;-82
2022/05/27 00:55:13;;;;;;;6.63;2.28;;;15.60;70.40;;;;;;5037908;28;20092;-80
2022/05/27 00:57:46;;;;;;;6.40;1.83;;;15.60;70.60;;;;;;5035934;28;20049;-81
2022/05/27 01:00:16;;;;;;;3.87;1.47;;;15.50;70.60;;;;;;5037688;28;20049;-81
2022/05/27 01:02:43;;;;;;;6.95;2.33;;;15.40;70.50;;;;;;5055022;28;20041;-81
2022/05/27 01:05:13;;;;;;;6.43;2.25;;;15.40;70.70;;;;;;5055256;28;20045;-81
2022/05/27 01:07:38;;;;;;;7.25;3.03;;;15.40;70.80;;;;;;5053545;28;20053;-80
2022/05/27 01:10:07;;;;;;;8.18;3.15;;;15.50;71.00;;;;;;5052673;28;20079;-81
2022/05/27 01:12:50;;;;;;;8.27;2.70;;;15.40;71.10;;;;;;5053789;28;20041;-82
2022/05/27 01:15:32;;;;;;;6.68;2.70;;;15.30;71.20;;;;;;5054385;28;20140;-81
2022/05/27 01:18:01;;;;;;;8.07;2.92;;;15.30;71.40;;;;;;5052933;28;21647;-80
2022/05/27 01:21:05;;;;;;;11.00;3.45;;;15.30;71.50;;;;;;5034887;28;20045;-80
2022/05/27 01:23:51;;;;;;;8.98;3.00;;;15.20;71.70;;;;;;4954416;29;20554;-80
2022/05/27 01:26:41;;;;;;;9.80;3.03;;;15.20;71.80;;;;;;4938346;29;20181;-82
2022/05/27 01:29:26;;;;;;;14.50;4.60;;;15.10;71.80;;;;;;4952503;29;20111;-81
2022/05/27 01:32:03;;;;;;;11.05;3.78;;;15.10;71.90;;;;;;4954410;29;20495;-81
2022/05/27 01:34:55;;;;;;;8.52;3.05;;;15.00;72.00;;;;;;4938265;29;20059;-81
2022/05/27 01:37:49;;;;;;;11.13;3.10;;;15.00;72.00;;;;;;4954356;29;20454;-81
2022/05/27 01:40:31;;;;;;;12.32;3.40;;;14.90;72.00;;;;;;4952221;29;20138;-81
2022/05/27 01:43:13;;;;;;;15.07;3.95;;;14.90;72.10;;;;;;4954345;29;20063;-81
2022/05/27 01:46:05;;;;;;;10.45;2.92;;;14.80;72.10;;;;;;4953964;29;20054;-81
2022/05/27 01:48:53;;;;;;;10.73;3.15;;;14.80;72.10;;;;;;4953788;29;20055;-81
2022/05/27 01:51:30;;;;;;;19.05;3.42;;;14.70;72.20;;;;;;4935856;29;20054;-81
2022/05/27 01:54:44;;;;;;;9.40;2.88;;;14.70;72.40;;;;;;4938257;29;20522;-82
2022/05/27 01:57:17;;;;;;;15.13;2.78;;;14.70;72.30;;;;;;4952705;29;20051;-82
2022/05/27 02:00:00;;;;;;;13.57;2.90;;;14.60;72.30;;;;;;5011606;28;20129;-82
2022/05/27 02:02:29;;;;;;;18.77;2.70;;;14.60;72.50;;;;;;5050576;28;20049;-82
2022/05/27 02:04:58;;;;;;;15.15;2.80;;;14.50;72.50;;;;;;5052471;28;20049;-82
2022/05/27 02:07:34;;;;;;;14.50;3.33;;;14.50;72.50;;;;;;5054233;28;20396;-82
2022/05/27 02:10:05;;;;;;;10.13;2.92;;;14.60;72.70;;;;;;5036151;28;20114;-81
2022/05/27 02:12:40;;;;;;;13.40;3.10;;;14.50;72.50;;;;;;5054049;28;20541;-81
2022/05/27 02:15:12;;;;;;;11.25;3.38;;;14.50;72.50;;;;;;5052704;28;20044;-81
2022/05/27 02:17:43;;;;;;;15.48;2.83;;;14.50;72.50;;;;;;5053959;28;20057;-80
2022/05/27 02:20:17;;;;;;;11.35;3.30;;;14.50;72.40;;;;;;5035983;28;20439;-82
2022/05/27 02:23:18;;;;;;;12.70;2.50;;;14.40;72.30;;;;;;5036176;28;20634;-80
2022/05/27 02:25:46;;;;;;;10.32;2.65;;;14.40;72.10;;;;;;4972151;28;20050;-82
2022/05/27 02:28:25;;;;;;;11.15;3.40;;;14.40;72.10;;;;;;4956925;28;20046;-83
2022/05/27 02:30:58;;;;;;;11.88;3.65;;;14.40;72.10;;;;;;4956376;28;20503;-82
2022/05/27 02:37:28;;;;;;;10.60;2.75;;;14.30;71.60;;;;;;4861210;29;20057;-82
2022/05/27 02:39:57;;;;;;;9.15;1.90;;;14.20;71.70;;;;;;4866067;29;20060;-82
2022/05/27 02:42:31;;;;;;;5.68;2.20;;;14.30;71.70;;;;;;4848807;29;20050;-82
2022/05/27 02:45:23;;;;;;;5.72;1.80;;;14.30;72.10;;;;;;4875416;29;20064;-81
2022/05/27 02:48:00;;;;;;;7.25;1.90;;;14.30;71.50;;;;;;4855204;29;20056;-82
2022/05/27 02:50:34;;;;;;;7.95;1.98;;;14.40;71.60;;;;;;4864115;29;20061;-81
2022/05/27 02:53:19;;;;;;;5.65;1.75;;;14.40;71.40;;;;;;4863900;29;20052;-81
2022/05/27 02:56:12;;;;;;;9.13;1.83;;;14.40;71.30;;;;;;4873121;29;20398;-81
2022/05/27 02:58:38;;;;;;;7.00;2.38;;;14.50;71.20;;;;;;4865713;29;20089;-81
2022/05/27 03:01:05;;;;;;;6.80;2.03;;;14.50;71.30;;;;;;4873703;29;20077;-82
2022/05/27 03:03:31;;;;;;;5.25;1.30;;;14.50;71.20;;;;;;4891535;29;20088;-82
2022/05/27 03:06:18;;;;;;;6.85;1.90;;;14.50;71.10;;;;;;4893565;29;20063;-81
2022/05/27 03:09:07;;;;;;;7.50;2.33;;;14.50;71.00;;;;;;4987618;28;20129;-82
2022/05/27 03:11:59;;;;;;;6.82;1.60;;;14.50;70.80;;;;;;4977780;28;20170;-81
2022/05/27 03:14:39;;;;;;;6.65;2.25;;;14.60;70.70;;;;;;4952023;29;20407;-80
2022/05/27 03:17:20;;;;;;;7.28;2.28;;;14.60;70.80;;;;;;4920892;29;20447;-80
2022/05/27 03:19:54;;;;;;;8.10;1.98;;;14.60;70.70;;;;;;4951935;28;20047;-80
2022/05/27 03:22:44;;;;;;;8.00;2.55;;;14.60;70.70;;;;;;4935027;29;20066;-82
2022/05/27 03:25:30;;;;;;;6.13;1.38;;;14.60;70.60;;;;;;4936059;29;20052;-80
2022/05/27 03:28:12;;;;;;;5.97;2.03;;;14.70;70.50;;;;;;4936793;29;20458;-80
2022/05/27 03:30:51;;;;;;;7.15;2.47;;;14.70;70.40;;;;;;4950054;29;20094;-80
2022/05/27 03:33:33;;;;;;;5.97;1.75;;;14.60;70.30;;;;;;4952255;29;20051;-81
2022/05/27 03:36:27;;;;;;;7.10;2.00;;;14.70;70.20;;;;;;4952075;29;20054;-81
2022/05/27 03:39:07;;;;;;;5.68;1.75;;;14.70;70.20;;;;;;4936510;29;20082;-80
2022/05/27 03:41:37;;;;;;;7.00;2.20;;;14.70;70.00;;;;;;4951068;29;20067;-81
2022/05/27 03:44:04;;;;;;;6.38;1.90;;;14.70;70.00;;;;;;4952044;29;20055;-81
2022/05/27 03:46:31;;;;;;;5.05;1.92;;;14.70;70.00;;;;;;4936086;29;20082;-80
2022/05/27 03:48:57;;;;;;;6.57;1.60;;;14.70;69.90;;;;;;4936360;29;20101;-81
2022/05/27 03:51:29;;;;;;;6.82;2.65;;;14.70;69.80;;;;;;5007329;28;20088;-81
2022/05/27 03:54:04;;;;;;;6.20;2.05;;;14.70;69.80;;;;;;5050688;28;20076;-83
2022/05/27 03:56:41;;;;;;;8.02;1.95;;;14.80;69.90;;;;;;5051715;28;20084;-81
2022/05/27 03:59:09;;;;;;;7.38;2.10;;;14.80;69.80;;;;;;5051703;28;20056;-81
2022/05/27 04:01:37;;;;;;;5.40;1.83;;;14.80;69.80;;;;;;5047937;28;20369;-81
2022/05/27 04:04:05;;;;;;;6.20;2.13;;;14.80;69.70;;;;;;5048883;28;20408;-81
2022/05/27 04:06:31;;;;;;;7.28;1.92;;;14.80;69.70;;;;;;5051959;28;20150;-81
2022/05/27 04:08:57;;;;;;;7.80;1.98;;;14.80;69.60;;;;;;5051702;28;20053;-81
2022/05/27 04:11:25;;;;;;;8.35;2.58;;;14.80;69.50;;;;;;5034869;28;20044;-81
2022/05/27 04:13:51;;;;;;;7.07;1.92;;;14.80;69.50;;;;;;5032819;28;20464;-81
2022/05/27 04:16:17;;;;;;;5.30;1.67;;;14.80;69.50;;;;;;5051847;28;20041;-80
2022/05/27 04:18:43;;;;;;;7.28;2.25;;;14.80;69.50;;;;;;5033250;28;20513;-80
2022/05/27 04:21:09;;;;;;;5.65;1.83;;;14.80;69.50;;;;;;5034341;28;20041;-81
2022/05/27 04:23:35;;;;;;;6.85;1.92;;;14.80;69.50;;;;;;5052320;28;20045;-81
2022/05/27 04:26:01;;;;;;;7.25;1.70;;;14.80;69.50;;;;;;5032960;28;20061;-82
2022/05/27 04:28:26;;;;;;;9.23;2.40;;;14.90;69.50;;;;;;5033852;28;20330;-81
2022/05/27 04:30:52;;;;;;;6.40;1.90;;;14.80;69.40;;;;;;5051876;28;20048;-82
2022/05/27 04:33:18;;;;;;;8.48;2.35;;;14.90;69.40;;;;;;5051724;28;20087;-81
2022/05/27 04:35:44;;;;;;;8.95;2.53;;;14.90;69.20;;;;;;5031253;28;20053;-82
2022/05/27 04:38:09;;;;;;;8.70;2.50;;;14.80;69.00;;;;;;5051566;28;20527;-81
2022/05/27 04:40:35;;;;;;;9.75;2.33;;;14.80;68.90;;;;;;5052184;28;20099;-81
2022/05/27 04:43:02;;;;;;;10.73;2.83;;;14.80;68.80;;;;;;5031337;28;20140;-82
2022/05/27 04:45:29;;;;;;;10.50;2.00;;;14.80;68.70;;;;;;5033977;28;20053;-82
2022/05/27 04:47:55;;;;;;;6.60;1.65;;;14.80;68.60;;;;;;5033132;28;20099;-81
2022/05/27 04:50:21;;;;;;;6.40;2.13;;;14.70;68.30;;;;;;5033957;28;20159;-82
2022/05/27 04:52:47;;;;;;;7.72;2.50;;;14.80;68.30;;;;;;5049352;28;20430;-81
2022/05/27 04:55:15;;;;;;;8.63;1.50;;;14.80;68.30;;;;;;5036155;28;20048;-82
2022/05/27 04:57:51;;;;;;;7.05;1.98;;;14.70;68.20;;;;;;5067830;28;20053;-82
2022/05/27 05:00:29;;;;;;;9.32;1.70;;;14.70;68.20;;;;;;5042816;28;20052;-83
2022/05/27 05:02:55;;;;;;;6.00;2.20;;;14.70;68.30;;;;;;5055118;28;20071;-81
2022/05/27 05:05:23;;;;;;;8.15;2.22;;;14.70;68.20;;;;;;5038122;28;20503;-80
2022/05/27 05:07:52;;;;;;;7.88;2.03;;;14.80;68.20;;;;;;5054377;28;20124;-81
2022/05/27 05:10:21;;;;;;;9.40;2.10;;;14.70;68.10;;;;;;5055495;28;20049;-81
2022/05/27 05:12:49;;;;;;;7.95;2.42;;;14.70;68.40;;;;;;5037366;28;20098;-81
2022/05/27 05:15:15;;;;;;;8.20;2.20;;;14.80;68.50;;;;;;5054977;28;20041;-81
2022/05/27 05:17:41;;;;;;;5.93;1.83;;;14.80;68.30;;;;;;5054249;28;20136;-81
2022/05/27 05:20:08;;;;;;;7.65;2.13;;;14.80;68.20;;;;;;5053139;28;20048;-81
2022/05/27 05:22:34;;;;;;;9.50;2.28;;;14.90;68.20;;;;;;5055042;28;20060;-81
2022/05/27 05:24:59;;;;;;;8.73;2.03;;;14.90;68.10;;;;;;5054922;28;20393;-81
2022/05/27 05:27:27;;;;;;;8.82;2.85;;;14.90;68.10;;;;;;5055243;28;21433;-82
2022/05/27 05:29:54;;;;;;;9.50;2.35;;;14.90;68.00;;;;;;5051402;28;20047;-81
2022/05/27 05:32:21;;;;;;;10.48;2.58;;;14.90;68.20;;;;;;5054509;28;20075;-81
2022/05/27 05:34:46;;;;;;;10.73;3.10;;;15.00;68.40;;;;;;5054482;28;20542;-81
2022/05/27 05:37:12;;;;;;;10.68;2.67;;;15.00;68.50;;;;;;5054608;28;20041;-81
2022/05/27 05:39:38;;;;;;;10.75;2.38;;;15.20;68.50;;;;;;5053001;28;20403;-79
2022/05/27 05:42:06;;;;;;;11.23;2.97;;;15.40;68.20;;;;;;5054686;28;20120;-80
2022/05/27 05:44:33;;;;;;;8.40;2.08;;;15.70;67.70;;;;;;5054432;28;20049;-81
2022/05/27 05:47:00;;;;;;;9.25;2.40;;;15.90;66.80;;;;;;5054613;28;20136;-81
2022/05/27 05:49:26;;;;;;;9.90;2.83;;;16.30;66.30;;;;;;5054859;28;20045;-82
2022/05/27 05:51:54;;;;;;;10.00;1.88;;;16.70;65.00;;;;;;5050692;28;20049;-84
2022/05/27 05:54:21;;;;;;;9.75;2.35;;;17.00;63.60;;;;;;5057748;28;20045;-82
2022/05/27 05:56:48;;;;;;;9.07;2.33;;;17.30;62.60;;;;;;5057035;28;20516;-81
2022/05/27 05:59:15;;;;;;;8.00;2.00;;;17.50;61.90;;;;;;5046874;28;20056;-80
2022/05/27 06:01:44;;;;;;;9.25;2.10;;;17.90;61.20;;;;;;5054961;28;20139;-80
2022/05/27 06:04:10;;;;;;;8.95;2.30;;;18.20;59.30;;;;;;5036352;28;20041;-81
2022/05/27 06:06:37;;;;;;;8.10;2.85;;;18.40;58.10;;;;;;5057274;28;20063;-82
2022/05/27 06:09:04;;;;;;;11.52;2.40;;;18.60;56.50;;;;;;5038059;28;20083;-80
2022/05/27 06:11:30;;;;;;;7.65;2.08;;;18.70;55.50;;;;;;5055111;28;20056;-80
2022/05/27 06:13:55;;;;;;;9.85;2.42;;;18.80;55.50;;;;;;5052759;28;20115;-82
2022/05/27 06:16:21;;;;;;;5.85;2.05;;;18.90;55.50;;;;;;5037203;28;20065;-81
2022/05/27 06:18:47;;;;;;;10.27;2.72;;;19.00;55.60;;;;;;5055016;28;20139;-80
2022/05/27 06:21:13;;;;;;;9.25;2.30;;;19.10;55.30;;;;;;5055238;28;20048;-82
2022/05/27 06:23:39;;;;;;;8.30;2.47;;;19.20;54.70;;;;;;5055441;28;20049;-82
2022/05/27 06:26:08;;;;;;;10.52;2.83;;;19.40;53.90;;;;;;5036607;28;20049;-84
2022/05/27 06:36:48;;;;;;;;;;;19.60;52.10;;;;;;5043183;28;20053;-87
2022/05/27 06:39:14;;;;;;;11.82;2.70;;;19.50;52.60;;;;;;5035249;28;19928;-86
2022/05/27 06:41:40;;;;;;;10.27;2.60;;;19.50;52.30;;;;;;5051998;28;20046;-88
2022/05/27 06:44:07;;;;;;;7.18;2.35;;;19.50;51.60;;;;;;5036571;28;20144;-88
2022/05/27 06:46:33;;;;;;;11.30;2.97;;;19.60;51.10;;;;;;5040992;28;20053;-90
2022/05/27 06:48:59;;;;;;;13.52;3.03;;;19.60;50.50;;;;;;5042187;28;20108;-82
2022/05/27 06:51:25;;;;;;;8.77;3.10;;;19.60;49.90;;;;;;5033930;28;20369;-86
2022/05/27 06:53:51;;;;;;;9.63;3.08;;;19.60;49.80;;;;;;5048555;28;20054;-84
2022/05/27 06:56:17;;;;;;;12.73;3.03;;;19.60;49.40;;;;;;5051142;28;20416;-85
2022/05/27 06:58:43;;;;;;;10.52;2.50;;;19.60;49.50;;;;;;5052743;28;20617;-84
2022/05/27 07:01:10;;;;;;;11.07;2.78;;;19.70;49.50;;;;;;5054274;28;20085;-84
2022/05/27 07:03:37;;;;;;;8.80;2.50;;;19.60;48.50;;;;;;5031586;28;20128;-85
2022/05/27 07:06:09;;;;;;;10.52;2.50;;;19.60;48.10;;;;;;5042650;28;20487;-84
2022/05/27 07:08:36;;;;;;;9.68;2.78;;;19.50;47.50;;;;;;5048024;28;20408;-90
2022/05/27 07:14:34;;;;;;;10.68;2.63;;;19.50;47.90;;;;;;5047384;28;20053;-83
2022/05/27 07:17:01;;;;;;;6.95;2.55;;;19.60;48.90;;;;;;5049475;28;20064;-82
2022/05/27 07:19:26;;;;;;;9.18;2.83;;;19.60;48.40;;;;;;5022826;28;20045;-83
2022/05/27 07:21:55;;;;;;;13.50;3.00;;;19.60;48.90;;;;;;5052785;28;20102;-83
2022/05/27 07:24:22;;;;;;;9.57;2.55;;;19.50;48.60;;;;;;5036092;28;20136;-83
2022/05/27 07:26:48;;;;;;;11.63;3.15;;;19.40;48.30;;;;;;5053890;28;20132;-82
2022/05/27 07:29:14;;;;;;;11.52;3.10;;;19.20;48.40;;;;;;5047598;28;20504;-82
2022/05/27 07:31:42;;;;;;;10.55;2.78;;;19.00;48.00;;;;;;5044266;28;20063;-83
2022/05/27 07:34:08;;;;;;;8.30;2.83;;;18.80;47.60;;;;;;5053462;28;20045;-82
2022/05/27 07:36:34;;;;;;;8.75;2.63;;;18.50;47.70;;;;;;5053772;28;20053;-83
2022/05/27 07:39:00;;;;;;;11.00;2.80;;;18.30;48.20;;;;;;5031241;28;20075;-84
2022/05/27 07:41:30;;;;;;;8.07;2.55;;;18.10;49.10;;;;;;5053141;28;20419;-84
2022/05/27 07:43:59;;;;;;;9.02;2.88;;;18.00;49.90;;;;;;5023772;28;20063;-82
2022/05/27 07:46:25;;;;;;;13.60;2.78;;;17.90;50.10;;;;;;5043662;28;20080;-83
2022/05/27 07:48:51;;;;;;;8.73;2.55;;;17.90;50.20;;;;;;5073112;28;20454;-85
2022/05/27 07:51:17;;;;;;;9.43;2.42;;;18.00;50.80;;;;;;5058244;28;20507;-83
2022/05/27 07:53:43;;;;;;;11.18;3.13;;;18.00;49.70;;;;;;5053796;28;20099;-84
2022/05/27 07:56:10;;;;;;;10.40;2.65;;;18.10;50.00;;;;;;5035877;28;20045;-84
2022/05/27 07:58:37;;;;;;;10.90;3.28;;;18.20;48.80;;;;;;5053816;28;20052;-84
2022/05/27 08:01:04;;;;;;;11.27;3.08;;;18.30;48.00;;;;;;5051464;28;20049;-85
2022/05/27 08:03:31;;;;;;;6.68;2.25;;;18.20;47.50;;;;;;5035332;28;20366;-84
2022/05/27 08:05:59;;;;;;;10.23;2.38;;;18.20;46.60;;;;;;5053297;28;20053;-83
2022/05/27 08:08:25;;;;;;;9.82;2.50;;;18.20;45.80;;;;;;5016296;28;20104;-84
2022/05/27 08:10:51;;;;;;;6.85;2.15;;;18.20;46.50;;;;;;5025171;28;20057;-84
2022/05/27 08:13:17;;;;;;;6.47;2.03;;;18.20;47.10;;;;;;5052547;28;20049;-83
2022/05/27 08:15:43;;;;;;;10.07;2.00;;;18.20;46.30;;;;;;5022823;28;20049;-85
2022/05/27 08:18:09;;;;;;;12.02;2.67;;;18.20;46.70;;;;;;5053021;28;20056;-84
2022/05/27 08:20:39;;;;;;;9.07;2.28;;;18.20;46.90;;;;;;5035501;28;20077;-85
2022/05/27 08:23:05;;;;;;;10.93;3.10;;;18.30;47.60;;;;;;5048330;28;20052;-83
2022/05/27 08:25:32;;;;;;;9.15;2.17;;;18.40;46.90;;;;;;5016717;28;20065;-83
2022/05/27 08:27:58;;;;;;;9.00;2.88;;;18.40;46.60;;;;;;5025316;28;20064;-84
2022/05/27 08:30:28;;;;;;;10.70;2.75;;;18.40;46.00;;;;;;5015831;28;20505;-84
2022/05/27 08:32:55;;;;;;;8.13;2.17;;;18.40;45.80;;;;;;5047003;28;20053;-85
2022/05/27 08:38:10;;;;;;;9.85;2.75;;;18.30;45.90;;;;;;5039014;28;20057;-86
2022/05/27 08:40:50;;;;;;;8.38;2.60;;;18.20;46.10;;;;;;5029900;28;20045;-84
2022/05/27 08:43:50;;;;;;;10.07;2.15;;;18.20;46.80;;;;;;5034716;28;20049;-85
2022/05/27 08:46:21;;;;;;;9.38;2.50;;;18.20;46.90;;;;;;5039062;28;20484;-84
2022/05/27 08:48:51;;;;;;;8.13;2.17;;;18.20;47.00;;;;;;5039125;28;20068;-83
2022/05/27 08:51:22;;;;;;;9.32;2.90;;;18.10;46.50;;;;;;5054400;28;20080;-83
2022/05/27 08:53:57;;;;;;;8.77;2.38;;;18.10;47.00;;;;;;5037574;28;20064;-83
2022/05/27 08:59:40;;;;;;;9.30;2.58;;;18.30;47.80;;;;;;5037173;28;20057;-83
2022/05/27 09:02:12;;;;;;;10.70;2.55;;;18.40;47.90;;;;;;5044703;28;20045;-88
2022/05/27 09:04:40;;;;;;;8.90;2.28;;;18.50;47.20;;;;;;5050511;28;20057;-83
2022/05/27 09:07:40;;;;;;;8.55;2.25;;;18.60;46.80;;;;;;5058024;28;20514;-89
2022/05/27 09:10:13;;;;;;;8.13;1.80;;;18.60;46.30;;;;;;5056021;28;20434;-82
2022/05/27 09:12:54;;;;;;;11.40;2.60;;;18.50;46.00;;;;;;5043032;28;20041;-83
2022/05/27 09:15:51;;;;;;;9.20;2.08;;;18.50;46.30;;;;;;5056631;28;20045;-82
2022/05/27 09:18:29;;;;;;;9.93;2.28;;;18.50;47.20;;;;;;5051145;28;20049;-84
2022/05/27 09:21:19;;;;;;;10.35;2.45;;;18.60;47.30;;;;;;5045630;28;20053;-84
2022/05/27 09:23:50;;;;;;;10.02;2.65;;;18.70;47.40;;;;;;5047557;28;20052;-82
2022/05/27 09:26:50;;;;;;;8.80;2.08;;;18.70;47.00;;;;;;5050782;28;20068;-83
2022/05/27 09:29:45;;;;;;;8.57;2.60;;;18.70;46.90;;;;;;4935190;29;20048;-83
2022/05/27 09:32:31;;;;;;;11.00;2.53;;;18.60;46.90;;;;;;4942465;29;20064;-83
2022/05/27 09:35:02;;;;;;;10.45;2.25;;;18.60;47.50;;;;;;4920219;29;20127;-82
2022/05/27 09:37:36;;;;;;;9.45;2.22;;;18.70;47.60;;;;;;4936152;29;20106;-82
2022/05/27 09:40:12;;;;;;;9.77;2.70;;;18.70;47.60;;;;;;4935418;29;20071;-83
2022/05/27 09:43:01;;;;;;;12.13;2.50;;;18.70;47.10;;;;;;4920147;29;20067;-82
2022/05/27 09:45:27;;;;;;;10.20;2.45;;;18.60;46.90;;;;;;4935642;29;20052;-83
2022/05/27 09:47:59;;;;;;;10.95;2.72;;;18.50;47.00;;;;;;4935969;29;20468;-82
2022/05/27 09:50:27;;;;;;;9.35;2.45;;;18.40;47.90;;;;;;4920905;29;20052;-81
2022/05/27 09:52:57;;;;;;;13.98;2.60;;;18.40;48.70;;;;;;4941041;29;20055;-83
2022/05/27 09:55:35;;;;;;;10.00;2.47;;;18.40;48.50;;;;;;4932108;29;20139;-82
2022/05/27 09:58:03;;;;;;;9.25;2.22;;;18.40;47.80;;;;;;4932296;29;20063;-81
2022/05/27 10:00:45;;;;;;;12.10;2.78;;;18.40;46.90;;;;;;4928058;29;20535;-83
2022/05/27 10:03:36;;;;;;;9.25;2.20;;;18.40;46.50;;;;;;4930844;29;20455;-83
2022/05/27 10:06:06;;;;;;;7.32;2.22;;;18.40;46.80;;;;;;4988411;28;20052;-83
2022/05/27 10:08:39;;;;;;;8.07;2.10;;;18.30;46.30;;;;;;5055536;28;20068;-85
2022/05/27 10:11:11;;;;;;;10.00;2.30;;;18.40;46.10;;;;;;5064521;28;20048;-86
2022/05/27 10:13:40;;;;;;;7.15;1.92;;;18.40;46.60;;;;;;5053862;28;20057;-84
2022/05/27 10:16:11;;;;;;;7.75;1.95;;;18.50;47.10;;;;;;5030354;28;20081;-84
2022/05/27 10:18:39;;;;;;;10.43;2.08;;;18.60;46.50;;;;;;5047237;28;20471;-84
2022/05/27 10:21:17;;;;;;;11.10;3.00;;;18.70;46.10;;;;;;5055968;28;20048;-83
2022/05/27 10:23:49;;;;;;;8.48;2.28;;;18.80;46.20;;;;;;5066039;28;20512;-83
2022/05/27 10:26:29;;;;;;;5.88;1.73;;;18.80;45.90;;;;;;5029344;28;20068;-82
2022/05/27 10:29:08;;;;;;;8.65;2.50;;;18.70;45.00;;;;;;5050632;28;20553;-83
2022/05/27 10:31:35;;;;;;;9.10;2.30;;;18.70;46.10;;;;;;5070905;28;20064;-84
2022/05/27 10:34:01;;;;;;;9.82;2.30;;;18.70;46.10;;;;;;5058224;28;20037;-84
2022/05/27 10:36:32;;;;;;;10.02;2.55;;;18.70;46.60;;;;;;5062009;28;20484;-84
2022/05/27 10:39:32;;;;;;;10.57;3.40;;;18.80;46.50;;;;;;5064011;28;20095;-84
2022/05/27 10:42:09;;;;;;;9.15;2.28;;;18.80;46.40;;;;;;5024706;28;20056;-82
2022/05/27 10:44:55;;;;;;;7.85;2.28;;;18.80;47.20;;;;;;5052207;28;20520;-84
2022/05/27 10:47:41;;;;;;;13.13;3.13;;;18.80;47.00;;;;;;5038258;28;20059;-82
2022/05/27 10:50:17;;;;;;;14.60;2.88;;;18.70;46.60;;;;;;5031825;28;20052;-83
2022/05/27 10:52:58;;;;;;;9.27;2.30;;;18.70;46.70;;;;;;5055925;28;20094;-85
2022/05/27 10:55:26;;;;;;;8.73;2.28;;;18.60;46.50;;;;;;5052801;28;20045;-83
2022/05/27 11:04:26;;;;;;;14.10;3.30;;;18.70;47.80;;;;;;5041588;28;20401;-81
2022/05/27 11:07:02;;;;;;;10.65;2.35;;;18.80;47.00;;;;;;5027324;28;20500;-84
2022/05/27 11:09:47;;;;;;;10.10;2.95;;;18.80;46.90;;;;;;5051341;28;20103;-83
2022/05/27 11:15:38;;;;;;;8.00;2.33;;;18.90;47.00;;;;;;5030881;28;20045;-83
2022/05/27 11:18:24;;;;;;;8.07;2.35;;;18.90;46.20;;;;;;5017795;28;20053;-82
2022/05/27 11:21:20;;;;;;;7.57;1.77;;;18.80;46.70;;;;;;5050219;28;20502;-81
2022/05/27 11:24:24;;;;;;;8.60;2.30;;;18.80;45.60;;;;;;5067144;28;20052;-83
2022/05/27 11:27:17;;;;;;;7.75;2.20;;;18.80;45.50;;;;;;5046670;28;20429;-83
2022/05/27 11:30:04;;;;;;;13.40;3.00;;;18.80;45.50;;;;;;5028165;28;20128;-83
2022/05/27 11:32:58;;;;;;;7.50;1.95;;;18.70;46.70;;;;;;5027476;28;20053;-83
2022/05/27 11:36:10;;;;;;;8.70;3.45;;;18.70;46.10;;;;;;5051126;28;20092;-84
2022/05/27 11:39:13;;;;;;;10.75;2.90;;;18.80;46.70;;;;;;5029023;28;20140;-83
2022/05/27 11:42:03;;;;;;;11.73;2.78;;;18.80;47.10;;;;;;5067768;28;20061;-82
2022/05/27 11:44:40;;;;;;;9.50;2.10;;;18.90;47.60;;;;;;5032848;28;20057;-82
2022/05/27 11:47:31;;;;;;;8.65;2.90;;;18.90;46.70;;;;;;5051344;28;20041;-84
2022/05/27 11:50:21;;;;;;;10.35;2.75;;;19.00;46.50;;;;;;5039083;28;20083;-84
2022/05/27 11:53:02;;;;;;;11.00;2.67;;;19.00;47.30;;;;;;5051789;28;20052;-86
2022/05/27 11:55:36;;;;;;;10.15;2.38;;;19.00;46.70;;;;;;5062504;28;20056;-83
2022/05/27 11:58:15;;;;;;;8.75;2.05;;;19.00;46.70;;;;;;5062203;28;20064;-84
2022/05/27 12:00:47;;;;;;;10.60;2.70;;;19.10;46.10;;;;;;5046149;28;20049;-83
2022/05/27 12:03:25;;;;;;;8.93;2.38;;;19.10;45.90;;;;;;5026611;28;20052;-83
2022/05/27 12:05:56;;;;;;;7.95;2.40;;;19.10;45.80;;;;;;5061934;28;20055;-84
2022/05/27 12:08:49;;;;;;;8.40;2.63;;;19.00;46.10;;;;;;5060094;28;20037;-83
2022/05/27 12:11:30;;;;;;;13.88;3.53;;;19.00;45.70;;;;;;5054815;28;20094;-84
2022/05/27 12:14:13;;;;;;;9.65;2.42;;;19.00;46.00;;;;;;5049775;28;20046;-84
2022/05/27 12:16:42;;;;;;;12.68;3.25;;;18.90;45.60;;;;;;5021539;28;20097;-85
2022/05/27 12:19:15;;;;;;;12.00;3.13;;;18.80;46.40;;;;;;5054740;28;20087;-86
2022/05/27 12:21:46;;;;;;;13.55;3.22;;;18.70;47.50;;;;;;5027618;28;20064;-84
2022/05/27 12:24:35;;;;;;;9.93;2.63;;;18.70;47.30;;;;;;5035447;28;20056;-85
2022/05/27 12:27:03;;;;;;;13.73;3.00;;;18.80;48.10;;;;;;5026104;28;20057;-86
2022/05/27 12:29:30;;;;;;;8.80;2.40;;;18.70;47.70;;;;;;5066499;28;20393;-86
2022/05/27 12:31:57;;;;;;;9.43;2.75;;;18.70;47.10;;;;;;5065642;28;20037;-86
2022/05/27 12:34:28;;;;;;;9.57;3.17;;;18.70;47.00;;;;;;5055538;28;20092;-84
2022/05/27 12:37:15;;;;;;;14.25;3.05;;;18.60;46.90;;;;;;5050206;28;20045;-83
2022/05/27 12:39:42;;;;;;;12.25;2.83;;;18.50;47.60;;;;;;5058581;28;20053;-85
2022/05/27 12:42:11;;;;;;;10.90;2.97;;;18.50;47.70;;;;;;5060477;28;20048;-85
2022/05/27 12:44:39;;;;;;;10.20;3.42;;;18.40;47.60;;;;;;5066742;28;20060;-87
2022/05/27 12:47:18;;;;;;;14.43;3.20;;;18.40;48.10;;;;;;5035315;28;20049;-87
2022/05/27 12:49:57;;;;;;;11.45;2.85;;;18.40;47.70;;;;;;5007631;28;20492;-86
2022/05/27 12:52:29;;;;;;;19.45;3.90;;;18.30;47.40;;;;;;5053955;28;20575;-85
2022/05/27 12:54:56;;;;;;;14.80;3.67;;;18.20;47.60;;;;;;5052370;28;20159;-85
2022/05/27 13:01:02;;;;;;;15.23;3.22;;;18.10;47.90;;;;;;5056237;28;20072;-87
2022/05/27 13:03:37;;;;;;;10.82;2.97;;;18.10;48.40;;;;;;5037154;28;20049;-85
2022/05/27 13:06:13;;;;;;;11.93;4.07;;;18.00;48.00;;;;;;5056642;28;20049;-86
2022/05/27 13:09:02;;;;;;;14.43;3.30;;;18.00;48.00;;;;;;5057160;28;20124;-85
2022/05/27 13:11:34;;;;;;;11.75;3.42;;;18.00;48.80;;;;;;5053230;28;20075;-83
2022/05/27 13:14:03;;;;;;;14.10;3.35;;;18.00;49.00;;;;;;5033093;28;20103;-85
2022/05/27 13:16:40;;;;;;;10.20;2.83;;;18.00;48.10;;;;;;5057311;28;20384;-85
2022/05/27 13:19:09;;;;;;;9.45;2.83;;;17.90;47.70;;;;;;5054954;28;20053;-86
2022/05/27 13:22:04;;;;;;;14.20;3.20;;;17.90;47.80;;;;;;5067781;28;20087;-86
2022/05/27 13:24:34;;;;;;;10.95;3.28;;;17.80;48.60;;;;;;5025776;28;20092;-86
2022/05/27 13:27:08;;;;;;;15.77;3.00;;;17.80;48.70;;;;;;5000593;28;20046;-87
2022/05/27 13:29:39;;;;;;;13.63;3.00;;;17.80;48.50;;;;;;5006673;28;20061;-84
2022/05/27 13:32:19;;;;;;;13.45;2.75;;;17.80;49.40;;;;;;5022017;28;20050;-85
2022/05/27 13:35:07;;;;;;;10.93;2.88;;;17.80;49.50;;;;;;5007538;28;20100;-86
2022/05/27 13:37:38;;;;;;;11.73;3.10;;;17.70;49.60;;;;;;5011787;28;20057;-84
2022/05/27 13:40:29;;;;;;;11.65;2.90;;;17.70;49.90;;;;;;4991819;28;20053;-85
2022/05/27 13:43:01;;;;;;;11.38;2.75;;;17.80;50.20;;;;;;5015372;28;20445;-85
2022/05/27 13:45:40;;;;;;;11.90;2.50;;;17.70;49.50;;;;;;4997952;28;20130;-85
2022/05/27 13:48:23;;;;;;;11.45;3.08;;;17.70;48.80;;;;;;4995096;28;20054;-83
2022/05/27 13:50:52;;;;;;;10.05;2.33;;;17.70;49.20;;;;;;4989352;28;20517;-84